Terminal Aerodrome Forecast
Issued by NWS Charleston, WV

Current Version | Previous Version | Graphics & Text | Print | Product List | Glossary On
Versions: 1 2 3 4 5 6 7 8 9 10 11 12 13 14 15 16 17 18 19 20 21 22 23 24
538
FTUS41 KRLX 241131
TAFHTS
TAF
KHTS 241131Z 2412/2512 00000KT P6SM SCT120
     FM250800 00000KT 3SM BR FEW250
     FM250900 00000KT 1SM BR FEW001=

USA.gov is the U.S. government's official web portal to all federal, state and local government web resources and services.